Aérodrome :
LOGIN :

S'inscrire | Disclaimer

   EN    FR    IT 

 










Légende :    VFR   VFR Marginal   IFR   IFR Intensif   IFR Très Intensif
Visi : 
Plafond : 
>= 8 km
>= 3000ft
5 à 8 km
1000 à 3000 ft
1500m à 5 km
500 à 1000 ft
800 à 1500m
200 à 500 ft
< 800m
< 200 ft
Symboles :   Orages  Brouillard  Fortes neiges  Fortes précipitations  Vent > 20 kt
SIGMETs :   Divers  Orages  Givrage  Turbulence  Onde Orograph.  Cendres Volcan.






- Altitude de l'aérodrome : 32 ft
- Code IATA : LKZ


EGUL - RAF Lakenheath

DERNIER METAR :
  • 251556Z AUTO 27004KT 9999 SCT130 11/06 A3033 RMK AO2 DZE1456 SLP274 P0000 T01070061 $

METARs EXPIRÉS :
  • 251457Z AUTO 27007KT 9999 FEW110 11/08 A3031 RMK AO2 DZE56 SLP268 $
  • 251454Z AUTO 28008KT 9999 -DZ FEW120 11/08 A3031 RMK AO2 DZB34E45DZB46E48DZB54 SLP268 $
  • 251446Z AUTO 27008KT 9999 -DZ SCT120 11/07 A3031 RMK AO2 DZB34E45DZB46 SLP268 $
  • 251356Z AUTO 28011KT 9999 SCT029 SCT036 BKN120 12/08 A3030 RMK AO2 SLP264 T01220083 $

TAF TAF EGUL
Valide du 25 à 11h jusqu'au 26 à 17h UTC


251100Z 2511/2617 28010G15KT 9999 BKN080 QNH3028INS
BECMG 2514/2515 29010KT 9999 SCT100 QNH3037INS
BECMG 2517/2518 31006KT 9999 SCT160 QNH3041INS
BECMG 2602/2603 VRB03KT 6000 BR SKC QNH3055INS
BECMG 2605/2606 VRB03KT 5000 BR SKC QNH3060INS
BECMG 2609/2610 VRB06KT 9999 NSW SKC QNH3062INS TX14/2514Z TN02/2602Z



MET'MAP, la Météo Aéronautique d'un coup d'oeil ! - Copyright ORBIFLY Décembre 2007 - Disclaimer

ORBIFLY MET'MAP TEAM :

Programmation & Développement : Alexandra Zaïnal
Sur une idée originale de : Baudouin d'Aumeries
Assistance à la programmation : Marc-Olivier Méhu
Soutien technique & logistique : Manuel Goepfert

Contact : metmap@orbifly.com




SOURCES & CREDITS :

   NOAA